547  
SHUS65 KGJT 232016  
FWOGJT  
 
DAILY FIRE WEATHER OBSERVATION  
NATIONAL WEATHER SERVICE GRAND JUNCTION CO  
216 PM MDT FRI JUN 23 2017  
 
STATE OF THE WEATHER (W) 0  
DRY BULB TEMPERATURE 89 DEGREES FAHRENHEIT  
RELATIVE HUMIDITY (RH) 7 PERCENT  
LIGHTNING ACTIVITY LEVEL  
(LAL - MIDNIGHT TO 2 PM) 1  
WIND DIRECTION C DEGREES (C IF CALM)  
WIND SPEED 0 MPH  
MAX TEMP (2 PM - 2 PM) 101 DEGREES FAHRENHEIT  
MIN TEMP (2 PM - 2 PM) 65 DEGREES FAHRENHEIT  
MAX RH (2 PM - 2 PM) 27 PERCENT  
MIN RH (2 PM - 2 PM) 7 PERCENT  
PCPN DURATION 0.0 HOURS  
PCPN AMT (2 PM - 2 PM) 0.0 INCHES  
LAL (2 PM - 2 PM) 1  
 

 
 
METAR KGJT 231953Z VRB03KT 10SM CLR 32/M08 A3006 RMK AO2 SLP095  
T03171078  
 
CLICK HERE TO GO TO PREVIOUS BULLETINS.

The Nexlab CO Page
The Nexlab UT Page Main Text Page